sensor_id;sensor_type;location;lat;lon;timestamp;temperature;humidity
16995;DHT22;8614;48.522;9.206;2024-01-27T00:00:41;2.80;99.90
16995;DHT22;8614;48.522;9.206;2024-01-27T00:03:07;2.80;99.90
16995;DHT22;8614;48.522;9.206;2024-01-27T00:05:34;2.70;99.90
16995;DHT22;8614;48.522;9.206;2024-01-27T00:08:01;2.70;99.90
16995;DHT22;8614;48.522;9.206;2024-01-27T00:10:29;2.60;99.90
16995;DHT22;8614;48.522;9.206;2024-01-27T00:12:56;2.50;99.90
16995;DHT22;8614;48.522;9.206;2024-01-27T00:15:23;2.40;99.90
16995;DHT22;8614;48.522;9.206;2024-01-27T00:17:50;2.40;99.90
16995;DHT22;8614;48.522;9.206;2024-01-27T00:20:17;2.30;99.90
16995;DHT22;8614;48.522;9.206;2024-01-27T00:22:43;2.30;99.90
16995;DHT22;8614;48.522;9.206;2024-01-27T00:25:10;2.30;99.90
16995;DHT22;8614;48.522;9.206;2024-01-27T00:27:38;2.30;99.90
16995;DHT22;8614;48.522;9.206;2024-01-27T00:30:06;2.20;99.90
16995;DHT22;8614;48.522;9.206;2024-01-27T00:32:33;2.20;99.90
16995;DHT22;8614;48.522;9.206;2024-01-27T00:35:00;2.20;99.90
16995;DHT22;8614;48.522;9.206;2024-01-27T00:37:27;2.20;99.90
16995;DHT22;8614;48.522;9.206;2024-01-27T00:39:54;2.20;99.90
16995;DHT22;8614;48.522;9.206;2024-01-27T00:42:20;2.20;99.90
16995;DHT22;8614;48.522;9.206;2024-01-27T00:44:51;2.10;99.90
16995;DHT22;8614;48.522;9.206;2024-01-27T00:47:18;2.10;99.90
16995;DHT22;8614;48.522;9.206;2024-01-27T00:49:44;2.10;99.90
16995;DHT22;8614;48.522;9.206;2024-01-27T00:52:11;2.00;99.90
16995;DHT22;8614;48.522;9.206;2024-01-27T00:54:38;2.00;99.90
16995;DHT22;8614;48.522;9.206;2024-01-27T00:57:05;2.00;99.90
16995;DHT22;8614;48.522;9.206;2024-01-27T00:59:31;2.00;99.90
16995;DHT22;8614;48.522;9.206;2024-01-27T01:02:00;2.00;99.90
16995;DHT22;8614;48.522;9.206;2024-01-27T01:04:26;1.90;99.90
16995;DHT22;8614;48.522;9.206;2024-01-27T01:06:53;1.90;99.90
16995;DHT22;8614;48.522;9.206;2024-01-27T01:09:20;1.90;99.90
16995;DHT22;8614;48.522;9.206;2024-01-27T01:11:47;1.80;99.90
16995;DHT22;8614;48.522;9.206;2024-01-27T01:14:13;1.80;99.90
16995;DHT22;8614;48.522;9.206;2024-01-27T01:16:40;1.90;99.90
16995;DHT22;8614;48.522;9.206;2024-01-27T01:19:08;1.90;99.90
16995;DHT22;8614;48.522;9.206;2024-01-27T01:21:35;1.90;99.90
16995;DHT22;8614;48.522;9.206;2024-01-27T01:24:02;1.80;99.90
16995;DHT22;8614;48.522;9.206;2024-01-27T01:26:29;1.80;99.90
16995;DHT22;8614;48.522;9.206;2024-01-27T01:28:56;1.80;99.90
16995;DHT22;8614;48.522;9.206;2024-01-27T01:31:22;1.80;99.90
16995;DHT22;8614;48.522;9.206;2024-01-27T01:33:49;1.80;99.90
16995;DHT22;8614;48.522;9.206;2024-01-27T01:36:17;1.90;99.90
16995;DHT22;8614;48.522;9.206;2024-01-27T01:38:44;1.80;99.90
16995;DHT22;8614;48.522;9.206;2024-01-27T01:41:11;1.80;99.90
16995;DHT22;8614;48.522;9.206;2024-01-27T01:43:38;1.90;99.90
16995;DHT22;8614;48.522;9.206;2024-01-27T01:46:05;1.80;99.90
16995;DHT22;8614;48.522;9.206;2024-01-27T01:48:32;1.80;99.90
16995;DHT22;8614;48.522;9.206;2024-01-27T01:51:00;1.70;99.90
16995;DHT22;8614;48.522;9.206;2024-01-27T01:53:28;1.70;99.90
16995;DHT22;8614;48.522;9.206;2024-01-27T01:55:55;1.70;99.90
16995;DHT22;8614;48.522;9.206;2024-01-27T01:58:22;1.70;99.90
16995;DHT22;8614;48.522;9.206;2024-01-27T02:00:49;1.70;99.90
16995;DHT22;8614;48.522;9.206;2024-01-27T02:03:16;1.70;99.90
16995;DHT22;8614;48.522;9.206;2024-01-27T02:05:42;1.70;99.90
16995;DHT22;8614;48.522;9.206;2024-01-27T02:08:09;1.70;99.90
16995;DHT22;8614;48.522;9.206;2024-01-27T02:10:37;1.70;99.90
16995;DHT22;8614;48.522;9.206;2024-01-27T02:13:14;1.70;99.90
16995;DHT22;8614;48.522;9.206;2024-01-27T02:15:42;1.70;99.90
16995;DHT22;8614;48.522;9.206;2024-01-27T02:18:09;1.70;99.90
16995;DHT22;8614;48.522;9.206;2024-01-27T02:20:36;1.80;99.90
16995;DHT22;8614;48.522;9.206;2024-01-27T02:23:03;1.70;99.90
16995;DHT22;8614;48.522;9.206;2024-01-27T02:25:32;1.70;99.90
16995;DHT22;8614;48.522;9.206;2024-01-27T02:27:59;1.70;99.90
16995;DHT22;8614;48.522;9.206;2024-01-27T02:30:26;1.70;99.90
16995;DHT22;8614;48.522;9.206;2024-01-27T02:32:53;1.70;99.90
16995;DHT22;8614;48.522;9.206;2024-01-27T02:35:20;1.70;99.90
16995;DHT22;8614;48.522;9.206;2024-01-27T02:37:46;1.70;99.90
16995;DHT22;8614;48.522;9.206;2024-01-27T02:40:13;1.60;99.90
16995;DHT22;8614;48.522;9.206;2024-01-27T02:42:42;1.70;99.90
16995;DHT22;8614;48.522;9.206;2024-01-27T02:45:10;1.60;99.90
16995;DHT22;8614;48.522;9.206;2024-01-27T02:47:37;1.60;99.90
16995;DHT22;8614;48.522;9.206;2024-01-27T02:50:04;1.50;99.90
16995;DHT22;8614;48.522;9.206;2024-01-27T02:52:31;1.50;99.90
16995;DHT22;8614;48.522;9.206;2024-01-27T02:54:58;1.50;99.90
16995;DHT22;8614;48.522;9.206;2024-01-27T02:57:25;1.50;99.90
16995;DHT22;8614;48.522;9.206;2024-01-27T02:59:53;1.50;99.90
16995;DHT22;8614;48.522;9.206;2024-01-27T03:02:20;1.50;99.90
16995;DHT22;8614;48.522;9.206;2024-01-27T03:04:47;1.50;99.90
16995;DHT22;8614;48.522;9.206;2024-01-27T03:07:14;1.50;99.90
16995;DHT22;8614;48.522;9.206;2024-01-27T03:09:40;1.40;99.90
16995;DHT22;8614;48.522;9.206;2024-01-27T03:12:08;1.40;99.90
16995;DHT22;8614;48.522;9.206;2024-01-27T03:14:34;1.30;99.90
16995;DHT22;8614;48.522;9.206;2024-01-27T03:17:03;1.30;99.90
16995;DHT22;8614;48.522;9.206;2024-01-27T03:19:30;1.30;99.90
16995;DHT22;8614;48.522;9.206;2024-01-27T03:21:56;1.20;99.90
16995;DHT22;8614;48.522;9.206;2024-01-27T03:24:23;1.20;99.90
16995;DHT22;8614;48.522;9.206;2024-01-27T03:26:50;1.10;99.90
16995;DHT22;8614;48.522;9.206;2024-01-27T03:29:17;1.10;99.90
16995;DHT22;8614;48.522;9.206;2024-01-27T03:31:43;1.10;99.90
16995;DHT22;8614;48.522;9.206;2024-01-27T03:34:12;1.10;99.90
16995;DHT22;8614;48.522;9.206;2024-01-27T03:36:39;1.10;99.90
16995;DHT22;8614;48.522;9.206;2024-01-27T03:39:07;1.10;99.90
16995;DHT22;8614;48.522;9.206;2024-01-27T03:41:34;1.10;99.90
16995;DHT22;8614;48.522;9.206;2024-01-27T03:44:01;1.10;99.90
16995;DHT22;8614;48.522;9.206;2024-01-27T03:46:28;1.10;99.90
16995;DHT22;8614;48.522;9.206;2024-01-27T03:48:54;1.20;99.90
16995;DHT22;8614;48.522;9.206;2024-01-27T03:51:23;1.20;99.90
16995;DHT22;8614;48.522;9.206;2024-01-27T03:53:51;1.20;99.90
16995;DHT22;8614;48.522;9.206;2024-01-27T03:56:17;1.20;99.90
16995;DHT22;8614;48.522;9.206;2024-01-27T03:58:44;1.20;99.90
16995;DHT22;8614;48.522;9.206;2024-01-27T04:01:11;1.20;99.90
16995;DHT22;8614;48.522;9.206;2024-01-27T04:03:38;1.20;99.90
16995;DHT22;8614;48.522;9.206;2024-01-27T04:06:05;1.20;99.90
16995;DHT22;8614;48.522;9.206;2024-01-27T04:08:33;1.20;99.90
16995;DHT22;8614;48.522;9.206;2024-01-27T04:11:00;1.20;99.90
16995;DHT22;8614;48.522;9.206;2024-01-27T04:13:26;1.20;99.90
16995;DHT22;8614;48.522;9.206;2024-01-27T04:15:53;1.20;99.90
16995;DHT22;8614;48.522;9.206;2024-01-27T04:18:20;1.20;99.90
16995;DHT22;8614;48.522;9.206;2024-01-27T04:20:47;1.20;99.90
16995;DHT22;8614;48.522;9.206;2024-01-27T04:23:14;1.30;99.90
16995;DHT22;8614;48.522;9.206;2024-01-27T04:25:42;1.30;99.90
16995;DHT22;8614;48.522;9.206;2024-01-27T04:28:09;1.30;99.90
16995;DHT22;8614;48.522;9.206;2024-01-27T04:30:38;1.30;99.90
16995;DHT22;8614;48.522;9.206;2024-01-27T04:33:05;1.30;99.90
16995;DHT22;8614;48.522;9.206;2024-01-27T04:35:33;1.30;99.90
16995;DHT22;8614;48.522;9.206;2024-01-27T04:38:00;1.30;99.90
16995;DHT22;8614;48.522;9.206;2024-01-27T04:40:26;1.30;99.90
16995;DHT22;8614;48.522;9.206;2024-01-27T04:42:55;1.30;99.90
16995;DHT22;8614;48.522;9.206;2024-01-27T04:45:21;1.40;99.90
16995;DHT22;8614;48.522;9.206;2024-01-27T04:47:48;1.40;99.90
16995;DHT22;8614;48.522;9.206;2024-01-27T04:50:15;1.30;99.90
16995;DHT22;8614;48.522;9.206;2024-01-27T04:52:42;1.30;99.90
16995;DHT22;8614;48.522;9.206;2024-01-27T04:55:09;1.30;99.90
16995;DHT22;8614;48.522;9.206;2024-01-27T04:57:36;1.30;99.90
16995;DHT22;8614;48.522;9.206;2024-01-27T05:00:05;1.20;99.90
16995;DHT22;8614;48.522;9.206;2024-01-27T05:02:36;1.20;99.90
16995;DHT22;8614;48.522;9.206;2024-01-27T05:05:03;1.20;99.90
16995;DHT22;8614;48.522;9.206;2024-01-27T05:07:30;1.10;99.90
16995;DHT22;8614;48.522;9.206;2024-01-27T05:09:57;1.00;99.90
16995;DHT22;8614;48.522;9.206;2024-01-27T05:12:24;1.00;99.90
16995;DHT22;8614;48.522;9.206;2024-01-27T05:14:51;0.90;99.90
16995;DHT22;8614;48.522;9.206;2024-01-27T05:17:19;0.90;99.90
16995;DHT22;8614;48.522;9.206;2024-01-27T05:19:46;0.80;99.90
16995;DHT22;8614;48.522;9.206;2024-01-27T05:22:12;0.80;99.90
16995;DHT22;8614;48.522;9.206;2024-01-27T05:24:39;0.80;99.90
16995;DHT22;8614;48.522;9.206;2024-01-27T05:27:06;0.70;99.90
16995;DHT22;8614;48.522;9.206;2024-01-27T05:29:33;0.70;99.90
16995;DHT22;8614;48.522;9.206;2024-01-27T05:31:59;0.70;99.90
16995;DHT22;8614;48.522;9.206;2024-01-27T05:34:28;0.70;99.90
16995;DHT22;8614;48.522;9.206;2024-01-27T05:36:55;0.70;99.90
16995;DHT22;8614;48.522;9.206;2024-01-27T05:39:22;0.70;99.90
16995;DHT22;8614;48.522;9.206;2024-01-27T05:41:49;0.70;99.90
16995;DHT22;8614;48.522;9.206;2024-01-27T05:44:16;0.70;99.90
16995;DHT22;8614;48.522;9.206;2024-01-27T05:46:42;0.70;99.90
16995;DHT22;8614;48.522;9.206;2024-01-27T05:49:09;0.60;99.90
16995;DHT22;8614;48.522;9.206;2024-01-27T05:51:37;0.60;99.90
16995;DHT22;8614;48.522;9.206;2024-01-27T05:54:04;0.50;99.90
16995;DHT22;8614;48.522;9.206;2024-01-27T05:56:31;0.50;99.90
16995;DHT22;8614;48.522;9.206;2024-01-27T05:58:58;0.40;99.90
16995;DHT22;8614;48.522;9.206;2024-01-27T06:01:25;0.40;99.90
16995;DHT22;8614;48.522;9.206;2024-01-27T06:03:52;0.40;99.90
16995;DHT22;8614;48.522;9.206;2024-01-27T06:06:19;0.30;99.90
16995;DHT22;8614;48.522;9.206;2024-01-27T06:08:47;0.30;99.90
16995;DHT22;8614;48.522;9.206;2024-01-27T06:11:24;0.20;99.90
16995;DHT22;8614;48.522;9.206;2024-01-27T06:13:51;0.20;99.90
16995;DHT22;8614;48.522;9.206;2024-01-27T06:16:18;0.20;99.90
16995;DHT22;8614;48.522;9.206;2024-01-27T06:18:45;0.20;99.90
16995;DHT22;8614;48.522;9.206;2024-01-27T06:21:11;0.20;99.90
16995;DHT22;8614;48.522;9.206;2024-01-27T06:23:39;0.10;99.90
16995;DHT22;8614;48.522;9.206;2024-01-27T06:26:08;0.10;99.90
16995;DHT22;8614;48.522;9.206;2024-01-27T06:28:35;0.00;99.90
16995;DHT22;8614;48.522;9.206;2024-01-27T06:31:02;0.00;99.90
16995;DHT22;8614;48.522;9.206;2024-01-27T06:33:28;0.10;99.90
16995;DHT22;8614;48.522;9.206;2024-01-27T06:35:55;0.10;99.90
16995;DHT22;8614;48.522;9.206;2024-01-27T06:38:22;0.10;99.90
16995;DHT22;8614;48.522;9.206;2024-01-27T06:40:49;0.10;99.90
16995;DHT22;8614;48.522;9.206;2024-01-27T06:43:17;0.10;99.90
16995;DHT22;8614;48.522;9.206;2024-01-27T06:45:44;0.10;99.90
16995;DHT22;8614;48.522;9.206;2024-01-27T06:48:10;0.10;99.90
16995;DHT22;8614;48.522;9.206;2024-01-27T06:50:37;0.10;99.90
16995;DHT22;8614;48.522;9.206;2024-01-27T06:53:04;0.10;99.90
16995;DHT22;8614;48.522;9.206;2024-01-27T06:55:31;0.10;99.90
16995;DHT22;8614;48.522;9.206;2024-01-27T06:57:57;0.00;99.90
16995;DHT22;8614;48.522;9.206;2024-01-27T07:00:26;0.10;99.90
16995;DHT22;8614;48.522;9.206;2024-01-27T07:02:52;0.10;99.90
16995;DHT22;8614;48.522;9.206;2024-01-27T07:05:20;0.10;99.90
16995;DHT22;8614;48.522;9.206;2024-01-27T07:07:47;0.10;99.90
16995;DHT22;8614;48.522;9.206;2024-01-27T07:10:14;0.10;99.90
16995;DHT22;8614;48.522;9.206;2024-01-27T07:12:41;0.10;99.90
16995;DHT22;8614;48.522;9.206;2024-01-27T07:15:08;0.00;99.90
16995;DHT22;8614;48.522;9.206;2024-01-27T07:17:37;0.00;99.90
16995;DHT22;8614;48.522;9.206;2024-01-27T07:20:04;0.00;99.90
16995;DHT22;8614;48.522;9.206;2024-01-27T07:22:33;0.00;99.90
16995;DHT22;8614;48.522;9.206;2024-01-27T07:25:00;0.00;99.90
16995;DHT22;8614;48.522;9.206;2024-01-27T07:27:27;0.00;99.90
16995;DHT22;8614;48.522;9.206;2024-01-27T07:29:53;0.00;99.90
16995;DHT22;8614;48.522;9.206;2024-01-27T07:32:20;0.00;99.90
16995;DHT22;8614;48.522;9.206;2024-01-27T07:34:49;0.00;99.90
16995;DHT22;8614;48.522;9.206;2024-01-27T07:37:16;0.00;99.90
16995;DHT22;8614;48.522;9.206;2024-01-27T07:39:42;0.10;99.90
16995;DHT22;8614;48.522;9.206;2024-01-27T07:42:09;0.10;99.90
16995;DHT22;8614;48.522;9.206;2024-01-27T07:44:36;0.10;99.90
16995;DHT22;8614;48.522;9.206;2024-01-27T07:47:03;0.20;99.90
16995;DHT22;8614;48.522;9.206;2024-01-27T07:49:30;0.30;99.90
16995;DHT22;8614;48.522;9.206;2024-01-27T07:51:58;0.30;99.90
16995;DHT22;8614;48.522;9.206;2024-01-27T07:54:25;0.30;99.90
16995;DHT22;8614;48.522;9.206;2024-01-27T07:56:52;0.30;99.90
16995;DHT22;8614;48.522;9.206;2024-01-27T07:59:18;0.50;99.90
16995;DHT22;8614;48.522;9.206;2024-01-27T08:01:45;0.50;99.90
16995;DHT22;8614;48.522;9.206;2024-01-27T08:04:12;0.50;99.90
16995;DHT22;8614;48.522;9.206;2024-01-27T08:06:48;0.60;99.90
16995;DHT22;8614;48.522;9.206;2024-01-27T08:09:17;0.60;99.90
16995;DHT22;8614;48.522;9.206;2024-01-27T08:11:45;0.70;99.90
16995;DHT22;8614;48.522;9.206;2024-01-27T08:14:16;0.80;99.90
16995;DHT22;8614;48.522;9.206;2024-01-27T08:16:43;1.00;99.90
16995;DHT22;8614;48.522;9.206;2024-01-27T08:19:10;1.20;99.90
16995;DHT22;8614;48.522;9.206;2024-01-27T08:21:37;1.40;99.90
16995;DHT22;8614;48.522;9.206;2024-01-27T08:24:04;1.50;99.90
16995;DHT22;8614;48.522;9.206;2024-01-27T08:26:32;1.70;99.90
16995;DHT22;8614;48.522;9.206;2024-01-27T08:28:59;1.80;99.90
16995;DHT22;8614;48.522;9.206;2024-01-27T08:31:25;2.10;99.90
16995;DHT22;8614;48.522;9.206;2024-01-27T08:33:52;2.30;99.90
16995;DHT22;8614;48.522;9.206;2024-01-27T08:36:19;2.60;99.90
16995;DHT22;8614;48.522;9.206;2024-01-27T08:38:46;2.80;99.90
16995;DHT22;8614;48.522;9.206;2024-01-27T08:41:13;3.10;99.90
16995;DHT22;8614;48.522;9.206;2024-01-27T08:43:44;3.20;99.90
16995;DHT22;8614;48.522;9.206;2024-01-27T08:46:11;3.60;99.90
16995;DHT22;8614;48.522;9.206;2024-01-27T08:48:41;3.80;99.90
16995;DHT22;8614;48.522;9.206;2024-01-27T08:51:08;3.90;99.90
16995;DHT22;8614;48.522;9.206;2024-01-27T08:53:35;4.10;99.90
16995;DHT22;8614;48.522;9.206;2024-01-27T08:56:02;4.20;99.90
16995;DHT22;8614;48.522;9.206;2024-01-27T08:58:29;4.40;99.90
16995;DHT22;8614;48.522;9.206;2024-01-27T09:00:57;4.50;99.90
16995;DHT22;8614;48.522;9.206;2024-01-27T09:03:25;4.50;99.90
16995;DHT22;8614;48.522;9.206;2024-01-27T09:05:52;4.60;99.90
16995;DHT22;8614;48.522;9.206;2024-01-27T09:08:19;4.50;99.90
16995;DHT22;8614;48.522;9.206;2024-01-27T09:10:46;4.50;99.90
16995;DHT22;8614;48.522;9.206;2024-01-27T09:13:12;4.60;99.90
16995;DHT22;8614;48.522;9.206;2024-01-27T09:15:39;4.40;99.90
16995;DHT22;8614;48.522;9.206;2024-01-27T09:18:07;4.30;99.90
16995;DHT22;8614;48.522;9.206;2024-01-27T09:20:34;4.00;99.90
16995;DHT22;8614;48.522;9.206;2024-01-27T09:23:01;3.90;99.90
16995;DHT22;8614;48.522;9.206;2024-01-27T09:25:27;3.80;99.90
16995;DHT22;8614;48.522;9.206;2024-01-27T09:27:55;3.60;99.90
16995;DHT22;8614;48.522;9.206;2024-01-27T09:30:26;3.40;99.90
16995;DHT22;8614;48.522;9.206;2024-01-27T09:32:53;3.40;99.90
16995;DHT22;8614;48.522;9.206;2024-01-27T09:35:21;3.30;99.90
16995;DHT22;8614;48.522;9.206;2024-01-27T09:37:48;3.30;99.90
16995;DHT22;8614;48.522;9.206;2024-01-27T09:40:15;3.40;99.90
16995;DHT22;8614;48.522;9.206;2024-01-27T09:42:50;3.30;99.90
16995;DHT22;8614;48.522;9.206;2024-01-27T09:45:17;3.40;99.90
16995;DHT22;8614;48.522;9.206;2024-01-27T09:47:45;3.50;99.90
16995;DHT22;8614;48.522;9.206;2024-01-27T09:50:14;3.50;99.90
16995;DHT22;8614;48.522;9.206;2024-01-27T09:52:42;3.60;99.90
16995;DHT22;8614;48.522;9.206;2024-01-27T09:55:09;3.60;99.90
16995;DHT22;8614;48.522;9.206;2024-01-27T09:57:38;3.60;99.90
16995;DHT22;8614;48.522;9.206;2024-01-27T10:00:07;3.60;99.90
16995;DHT22;8614;48.522;9.206;2024-01-27T10:02:34;3.60;99.90
16995;DHT22;8614;48.522;9.206;2024-01-27T10:05:03;3.50;99.90
16995;DHT22;8614;48.522;9.206;2024-01-27T10:07:30;3.50;99.90
16995;DHT22;8614;48.522;9.206;2024-01-27T10:09:59;3.40;99.90
16995;DHT22;8614;48.522;9.206;2024-01-27T10:12:26;3.40;99.90
16995;DHT22;8614;48.522;9.206;2024-01-27T10:14:54;3.40;99.90
16995;DHT22;8614;48.522;9.206;2024-01-27T10:17:22;3.50;99.90
16995;DHT22;8614;48.522;9.206;2024-01-27T10:19:59;3.70;99.90
16995;DHT22;8614;48.522;9.206;2024-01-27T10:22:26;3.90;99.90
16995;DHT22;8614;48.522;9.206;2024-01-27T10:24:53;4.00;99.90
16995;DHT22;8614;48.522;9.206;2024-01-27T10:27:22;3.90;99.90
16995;DHT22;8614;48.522;9.206;2024-01-27T10:29:52;3.90;99.90
16995;DHT22;8614;48.522;9.206;2024-01-27T10:32:20;3.90;99.90
16995;DHT22;8614;48.522;9.206;2024-01-27T10:34:49;3.70;99.90
16995;DHT22;8614;48.522;9.206;2024-01-27T10:37:23;3.60;99.90
16995;DHT22;8614;48.522;9.206;2024-01-27T10:39:58;3.70;99.90
16995;DHT22;8614;48.522;9.206;2024-01-27T10:42:27;3.90;99.90
16995;DHT22;8614;48.522;9.206;2024-01-27T10:44:56;3.80;99.90
16995;DHT22;8614;48.522;9.206;2024-01-27T10:47:26;3.80;99.90
16995;DHT22;8614;48.522;9.206;2024-01-27T10:49:55;3.80;99.90
16995;DHT22;8614;48.522;9.206;2024-01-27T10:52:23;3.70;99.90
16995;DHT22;8614;48.522;9.206;2024-01-27T10:54:57;3.60;99.90
16995;DHT22;8614;48.522;9.206;2024-01-27T10:57:27;3.50;99.90
16995;DHT22;8614;48.522;9.206;2024-01-27T10:59:56;3.50;99.90
16995;DHT22;8614;48.522;9.206;2024-01-27T11:02:23;3.60;99.90
16995;DHT22;8614;48.522;9.206;2024-01-27T11:04:51;3.60;99.90
16995;DHT22;8614;48.522;9.206;2024-01-27T11:07:19;3.70;99.90
16995;DHT22;8614;48.522;9.206;2024-01-27T11:09:49;3.80;99.90
16995;DHT22;8614;48.522;9.206;2024-01-27T11:12:17;3.90;99.90
16995;DHT22;8614;48.522;9.206;2024-01-27T11:14:46;4.10;99.90
16995;DHT22;8614;48.522;9.206;2024-01-27T11:17:14;4.10;99.90
16995;DHT22;8614;48.522;9.206;2024-01-27T11:19:41;4.20;99.90
16995;DHT22;8614;48.522;9.206;2024-01-27T11:22:07;4.20;99.90
16995;DHT22;8614;48.522;9.206;2024-01-27T11:24:34;4.30;99.90
16995;DHT22;8614;48.522;9.206;2024-01-27T11:27:02;4.40;99.90
16995;DHT22;8614;48.522;9.206;2024-01-27T11:29:32;4.30;99.90
16995;DHT22;8614;48.522;9.206;2024-01-27T11:32:07;4.30;99.90
16995;DHT22;8614;48.522;9.206;2024-01-27T11:34:44;4.40;99.90
16995;DHT22;8614;48.522;9.206;2024-01-27T11:37:12;4.40;99.90
16995;DHT22;8614;48.522;9.206;2024-01-27T11:39:39;4.40;99.90
16995;DHT22;8614;48.522;9.206;2024-01-27T11:42:06;4.50;99.90
16995;DHT22;8614;48.522;9.206;2024-01-27T11:44:36;4.50;99.90
16995;DHT22;8614;48.522;9.206;2024-01-27T11:47:04;4.60;99.90
16995;DHT22;8614;48.522;9.206;2024-01-27T11:49:33;4.60;99.90
16995;DHT22;8614;48.522;9.206;2024-01-27T11:51:59;4.70;99.90
16995;DHT22;8614;48.522;9.206;2024-01-27T11:54:26;4.70;99.90
16995;DHT22;8614;48.522;9.206;2024-01-27T11:56:53;4.70;99.90
16995;DHT22;8614;48.522;9.206;2024-01-27T11:59:21;4.70;99.90
16995;DHT22;8614;48.522;9.206;2024-01-27T12:01:48;4.80;99.90
16995;DHT22;8614;48.522;9.206;2024-01-27T12:04:15;4.90;99.90
16995;DHT22;8614;48.522;9.206;2024-01-27T12:06:43;5.00;99.90
16995;DHT22;8614;48.522;9.206;2024-01-27T12:09:10;5.10;99.90
16995;DHT22;8614;48.522;9.206;2024-01-27T12:11:38;5.20;99.90
16995;DHT22;8614;48.522;9.206;2024-01-27T12:14:05;5.20;99.90
16995;DHT22;8614;48.522;9.206;2024-01-27T12:16:32;5.20;99.90
16995;DHT22;8614;48.522;9.206;2024-01-27T12:18:59;5.30;99.90
16995;DHT22;8614;48.522;9.206;2024-01-27T12:21:26;5.30;99.90
16995;DHT22;8614;48.522;9.206;2024-01-27T12:23:56;5.30;99.90
16995;DHT22;8614;48.522;9.206;2024-01-27T12:26:25;5.30;99.90
16995;DHT22;8614;48.522;9.206;2024-01-27T12:28:53;5.30;99.90
16995;DHT22;8614;48.522;9.206;2024-01-27T12:31:22;5.30;99.90
16995;DHT22;8614;48.522;9.206;2024-01-27T12:33:49;5.40;99.90
16995;DHT22;8614;48.522;9.206;2024-01-27T12:36:18;5.40;99.90
16995;DHT22;8614;48.522;9.206;2024-01-27T12:38:57;5.50;99.90
16995;DHT22;8614;48.522;9.206;2024-01-27T12:41:24;5.50;99.90
16995;DHT22;8614;48.522;9.206;2024-01-27T12:43:51;5.50;99.90
16995;DHT22;8614;48.522;9.206;2024-01-27T12:46:18;5.50;99.90
16995;DHT22;8614;48.522;9.206;2024-01-27T12:48:46;5.60;99.90
16995;DHT22;8614;48.522;9.206;2024-01-27T12:51:12;5.70;99.90
16995;DHT22;8614;48.522;9.206;2024-01-27T12:53:41;5.80;99.90
16995;DHT22;8614;48.522;9.206;2024-01-27T12:56:12;5.90;99.90
16995;DHT22;8614;48.522;9.206;2024-01-27T12:58:39;5.90;99.90
16995;DHT22;8614;48.522;9.206;2024-01-27T13:01:07;5.90;99.90
16995;DHT22;8614;48.522;9.206;2024-01-27T13:03:34;5.90;99.90
16995;DHT22;8614;48.522;9.206;2024-01-27T13:06:02;6.00;99.90
16995;DHT22;8614;48.522;9.206;2024-01-27T13:08:29;6.00;99.90
16995;DHT22;8614;48.522;9.206;2024-01-27T13:10:55;6.00;99.90
16995;DHT22;8614;48.522;9.206;2024-01-27T13:13:23;6.10;99.90
16995;DHT22;8614;48.522;9.206;2024-01-27T13:15:50;6.20;99.90
16995;DHT22;8614;48.522;9.206;2024-01-27T13:18:17;6.20;99.90
16995;DHT22;8614;48.522;9.206;2024-01-27T13:20:44;6.30;99.90
16995;DHT22;8614;48.522;9.206;2024-01-27T13:23:10;6.30;99.90
16995;DHT22;8614;48.522;9.206;2024-01-27T13:25:37;6.30;99.90
16995;DHT22;8614;48.522;9.206;2024-01-27T13:28:04;6.40;99.90
16995;DHT22;8614;48.522;9.206;2024-01-27T13:30:34;6.40;99.90
16995;DHT22;8614;48.522;9.206;2024-01-27T13:33:01;6.40;99.90
16995;DHT22;8614;48.522;9.206;2024-01-27T13:35:27;6.50;99.90
16995;DHT22;8614;48.522;9.206;2024-01-27T13:37:54;6.50;99.90
16995;DHT22;8614;48.522;9.206;2024-01-27T13:40:21;6.50;99.90
16995;DHT22;8614;48.522;9.206;2024-01-27T13:42:49;6.50;99.90
16995;DHT22;8614;48.522;9.206;2024-01-27T13:45:15;6.50;99.90
16995;DHT22;8614;48.522;9.206;2024-01-27T13:47:43;6.60;99.90
16995;DHT22;8614;48.522;9.206;2024-01-27T13:50:16;6.60;99.90
16995;DHT22;8614;48.522;9.206;2024-01-27T13:52:42;6.60;99.90
16995;DHT22;8614;48.522;9.206;2024-01-27T13:55:11;6.70;99.90
16995;DHT22;8614;48.522;9.206;2024-01-27T13:57:38;6.70;99.90
16995;DHT22;8614;48.522;9.206;2024-01-27T14:00:06;6.70;99.90
16995;DHT22;8614;48.522;9.206;2024-01-27T14:02:34;6.70;99.90
16995;DHT22;8614;48.522;9.206;2024-01-27T14:05:02;6.70;99.90
16995;DHT22;8614;48.522;9.206;2024-01-27T14:07:29;6.80;99.90
16995;DHT22;8614;48.522;9.206;2024-01-27T14:09:56;6.80;99.90
16995;DHT22;8614;48.522;9.206;2024-01-27T14:12:23;6.80;99.90
16995;DHT22;8614;48.522;9.206;2024-01-27T14:14:49;6.80;99.90
16995;DHT22;8614;48.522;9.206;2024-01-27T14:17:17;6.90;99.90
16995;DHT22;8614;48.522;9.206;2024-01-27T14:19:46;6.90;99.90
16995;DHT22;8614;48.522;9.206;2024-01-27T14:22:14;6.90;99.90
16995;DHT22;8614;48.522;9.206;2024-01-27T14:24:42;6.90;99.90
16995;DHT22;8614;48.522;9.206;2024-01-27T14:27:10;6.90;99.90
16995;DHT22;8614;48.522;9.206;2024-01-27T14:29:36;6.90;99.90
16995;DHT22;8614;48.522;9.206;2024-01-27T14:32:04;6.90;99.90
16995;DHT22;8614;48.522;9.206;2024-01-27T14:34:32;6.90;99.90
16995;DHT22;8614;48.522;9.206;2024-01-27T14:36:59;7.00;99.90
16995;DHT22;8614;48.522;9.206;2024-01-27T14:39:29;6.90;99.90
16995;DHT22;8614;48.522;9.206;2024-01-27T14:41:56;6.90;99.90
16995;DHT22;8614;48.522;9.206;2024-01-27T14:44:23;6.90;99.90
16995;DHT22;8614;48.522;9.206;2024-01-27T14:46:50;6.90;99.90
16995;DHT22;8614;48.522;9.206;2024-01-27T14:49:17;6.90;99.90
16995;DHT22;8614;48.522;9.206;2024-01-27T14:51:44;6.90;99.90
16995;DHT22;8614;48.522;9.206;2024-01-27T14:54:10;6.80;99.90
16995;DHT22;8614;48.522;9.206;2024-01-27T14:56:38;6.80;99.90
16995;DHT22;8614;48.522;9.206;2024-01-27T14:59:05;6.80;99.90
16995;DHT22;8614;48.522;9.206;2024-01-27T15:01:33;6.70;99.90
16995;DHT22;8614;48.522;9.206;2024-01-27T15:04:00;6.70;99.90
16995;DHT22;8614;48.522;9.206;2024-01-27T15:06:27;6.70;99.90
16995;DHT22;8614;48.522;9.206;2024-01-27T15:08:54;6.70;99.90
16995;DHT22;8614;48.522;9.206;2024-01-27T15:11:22;6.60;99.90
16995;DHT22;8614;48.522;9.206;2024-01-27T15:13:50;6.60;99.90
16995;DHT22;8614;48.522;9.206;2024-01-27T15:16:17;6.60;99.90
16995;DHT22;8614;48.522;9.206;2024-01-27T15:18:45;6.60;99.90
16995;DHT22;8614;48.522;9.206;2024-01-27T15:21:12;6.50;99.90
16995;DHT22;8614;48.522;9.206;2024-01-27T15:23:39;6.50;99.90
16995;DHT22;8614;48.522;9.206;2024-01-27T15:26:06;6.50;99.90
16995;DHT22;8614;48.522;9.206;2024-01-27T15:28:32;6.40;99.90
16995;DHT22;8614;48.522;9.206;2024-01-27T15:31:01;6.40;99.90
16995;DHT22;8614;48.522;9.206;2024-01-27T15:33:27;6.40;99.90
16995;DHT22;8614;48.522;9.206;2024-01-27T15:35:54;6.30;99.90
16995;DHT22;8614;48.522;9.206;2024-01-27T15:38:21;6.20;99.90
16995;DHT22;8614;48.522;9.206;2024-01-27T15:40:48;6.20;99.90
16995;DHT22;8614;48.522;9.206;2024-01-27T15:43:14;6.20;99.90
16995;DHT22;8614;48.522;9.206;2024-01-27T15:45:41;6.10;99.90
16995;DHT22;8614;48.522;9.206;2024-01-27T15:48:09;6.10;99.90
16995;DHT22;8614;48.522;9.206;2024-01-27T15:50:37;6.00;99.90
16995;DHT22;8614;48.522;9.206;2024-01-27T15:53:04;5.90;99.90
16995;DHT22;8614;48.522;9.206;2024-01-27T15:55:33;5.80;99.90
16995;DHT22;8614;48.522;9.206;2024-01-27T15:58:00;5.70;99.90
16995;DHT22;8614;48.522;9.206;2024-01-27T16:00:28;5.60;99.90
16995;DHT22;8614;48.522;9.206;2024-01-27T16:02:55;5.50;99.90